sensor_id;sensor_type;location;lat;lon;timestamp;pressure;altitude;pressure_sealevel;temperature;humidity
51359;BME280;37448;51.588;7.248;2023-02-01T00:01:53;101325.44;;;3.11;96.26
51359;BME280;37448;51.588;7.248;2023-02-01T00:03:54;101319.50;;;3.15;96.14
51359;BME280;37448;51.588;7.248;2023-02-01T00:05:56;101317.94;;;3.24;96.43
51359;BME280;37448;51.588;7.248;2023-02-01T00:07:57;101328.34;;;3.28;96.13
51359;BME280;37448;51.588;7.248;2023-02-01T00:09:57;101319.75;;;3.29;95.75
51359;BME280;37448;51.588;7.248;2023-02-01T00:11:57;101321.56;;;3.34;95.25
51359;BME280;37448;51.588;7.248;2023-02-01T00:13:59;101336.25;;;3.36;95.62
51359;BME280;37448;51.588;7.248;2023-02-01T00:16:13;101321.72;;;3.41;94.27
51359;BME280;37448;51.588;7.248;2023-02-01T00:18:16;101320.88;;;3.42;95.04
51359;BME280;37448;51.588;7.248;2023-02-01T00:20:16;101316.59;;;3.44;94.24
51359;BME280;37448;51.588;7.248;2023-02-01T00:22:17;101310.59;;;3.45;94.08
51359;BME280;37448;51.588;7.248;2023-02-01T00:24:17;101319.25;;;3.48;94.31
51359;BME280;37448;51.588;7.248;2023-02-01T00:26:33;101320.19;;;3.51;94.07
51359;BME280;37448;51.588;7.248;2023-02-01T00:28:34;101319.31;;;3.51;93.35
51359;BME280;37448;51.588;7.248;2023-02-01T00:30:34;101309.88;;;3.53;92.69
51359;BME280;37448;51.588;7.248;2023-02-01T00:32:35;101304.72;;;3.54;92.92
51359;BME280;37448;51.588;7.248;2023-02-01T00:34:35;101304.72;;;3.53;92.45
51359;BME280;37448;51.588;7.248;2023-02-01T00:36:36;101291.81;;;3.53;92.56
51359;BME280;37448;51.588;7.248;2023-02-01T00:38:37;101293.50;;;3.51;93.25
51359;BME280;37448;51.588;7.248;2023-02-01T00:40:39;101282.28;;;3.50;91.90
51359;BME280;37448;51.588;7.248;2023-02-01T00:42:40;101285.75;;;3.51;91.73
51359;BME280;37448;51.588;7.248;2023-02-01T00:44:40;101287.44;;;3.50;91.27
51359;BME280;37448;51.588;7.248;2023-02-01T00:46:41;101289.19;;;3.50;91.04
51359;BME280;37448;51.588;7.248;2023-02-01T00:48:42;101290.06;;;3.52;90.06
51359;BME280;37448;51.588;7.248;2023-02-01T00:50:43;101294.38;;;3.53;89.38
51359;BME280;37448;51.588;7.248;2023-02-01T00:52:43;101290.09;;;3.53;88.41
51359;BME280;37448;51.588;7.248;2023-02-01T00:54:43;101296.97;;;3.53;89.14
51359;BME280;37448;51.588;7.248;2023-02-01T00:56:44;101298.72;;;3.54;88.78
51359;BME280;37448;51.588;7.248;2023-02-01T00:58:44;101296.97;;;3.54;90.02
51359;BME280;37448;51.588;7.248;2023-02-01T01:00:45;101290.97;;;3.54;87.88
51359;BME280;37448;51.588;7.248;2023-02-01T01:02:46;101293.56;;;3.54;89.18
51359;BME280;37448;51.588;7.248;2023-02-01T01:04:47;101301.31;;;3.55;89.03
51359;BME280;37448;51.588;7.248;2023-02-01T01:06:47;101296.97;;;3.53;88.62
51359;BME280;37448;51.588;7.248;2023-02-01T01:08:47;101300.41;;;3.52;86.96
51359;BME280;37448;51.588;7.248;2023-02-01T01:10:48;101290.09;;;3.53;86.51
51359;BME280;37448;51.588;7.248;2023-02-01T01:12:49;101299.56;;;3.54;87.27
51359;BME280;37448;51.588;7.248;2023-02-01T01:14:50;101284.97;;;3.55;84.79
51359;BME280;37448;51.588;7.248;2023-02-01T01:16:51;101290.97;;;3.55;85.48
51359;BME280;37448;51.588;7.248;2023-02-01T01:18:52;101294.44;;;3.56;86.05
51359;BME280;37448;51.588;7.248;2023-02-01T01:20:53;101292.75;;;3.59;84.39
51359;BME280;37448;51.588;7.248;2023-02-01T01:22:53;101293.59;;;3.58;83.94
51359;BME280;37448;51.588;7.248;2023-02-01T01:24:54;101294.50;;;3.61;84.81
51359;BME280;37448;51.588;7.248;2023-02-01T01:26:54;101295.38;;;3.61;84.47
51359;BME280;37448;51.588;7.248;2023-02-01T01:28:56;101298.81;;;3.60;85.01
51359;BME280;37448;51.588;7.248;2023-02-01T01:30:56;101284.16;;;3.61;85.98
51359;BME280;37448;51.588;7.248;2023-02-01T01:32:57;101282.44;;;3.59;86.03
51359;BME280;37448;51.588;7.248;2023-02-01T01:34:57;101285.06;;;3.61;83.85
51359;BME280;37448;51.588;7.248;2023-02-01T01:36:57;101287.63;;;3.61;85.10
51359;BME280;37448;51.588;7.248;2023-02-01T01:38:58;101300.56;;;3.61;84.94
51359;BME280;37448;51.588;7.248;2023-02-01T01:40:59;101282.47;;;3.61;84.34
51359;BME280;37448;51.588;7.248;2023-02-01T01:42:59;101279.94;;;3.64;84.59
51359;BME280;37448;51.588;7.248;2023-02-01T01:47:05;101287.72;;;3.66;84.67
51359;BME280;37448;51.588;7.248;2023-02-01T01:49:18;101292.84;;;3.64;84.12
51359;BME280;37448;51.588;7.248;2023-02-01T01:51:23;101279.94;;;3.64;84.03
51359;BME280;37448;51.588;7.248;2023-02-01T01:53:30;101273.88;;;3.62;85.93
51359;BME280;37448;51.588;7.248;2023-02-01T01:55:35;101283.38;;;3.63;85.27
51359;BME280;37448;51.588;7.248;2023-02-01T01:57:40;101275.66;;;3.65;85.10
51359;BME280;37448;51.588;7.248;2023-02-01T01:59:46;101261.00;;;3.65;84.76
51359;BME280;37448;51.588;7.248;2023-02-01T02:01:48;101275.63;;;3.63;85.26
51359;BME280;37448;51.588;7.248;2023-02-01T02:03:50;101268.72;;;3.62;85.86
51359;BME280;37448;51.588;7.248;2023-02-01T02:05:53;101266.13;;;3.62;85.94
51359;BME280;37448;51.588;7.248;2023-02-01T02:07:58;101266.97;;;3.61;85.07
51359;BME280;37448;51.588;7.248;2023-02-01T02:09:58;101272.13;;;3.61;84.96
51359;BME280;37448;51.588;7.248;2023-02-01T02:12:00;101266.13;;;3.62;85.85
51359;BME280;37448;51.588;7.248;2023-02-01T02:14:01;101256.75;;;3.67;83.23
51359;BME280;37448;51.588;7.248;2023-02-01T02:20:57;101259.31;;;3.67;85.32
51359;BME280;37448;51.588;7.248;2023-02-01T02:27:37;101253.41;;;3.73;84.89
51359;BME280;37448;51.588;7.248;2023-02-01T02:30:10;101251.66;;;3.73;83.60
51359;BME280;37448;51.588;7.248;2023-02-01T02:34:28;101249.09;;;3.73;84.18
51359;BME280;37448;51.588;7.248;2023-02-01T02:43:48;101227.59;;;3.75;82.74
51359;BME280;37448;51.588;7.248;2023-02-01T02:46:25;101231.88;;;3.74;83.85
51359;BME280;37448;51.588;7.248;2023-02-01T02:50:57;101225.81;;;3.72;84.79
51359;BME280;37448;51.588;7.248;2023-02-01T02:53:28;101222.31;;;3.68;83.96
51359;BME280;37448;51.588;7.248;2023-02-01T02:55:50;101224.88;;;3.68;83.82
51359;BME280;37448;51.588;7.248;2023-02-01T02:57:53;101228.38;;;3.70;82.77
51359;BME280;37448;51.588;7.248;2023-02-01T03:00:16;101221.47;;;3.69;83.00
51359;BME280;37448;51.588;7.248;2023-02-01T03:02:37;101213.72;;;3.68;84.23
51359;BME280;37448;51.588;7.248;2023-02-01T03:04:56;101206.00;;;3.71;83.06
51359;BME280;37448;51.588;7.248;2023-02-01T03:07:09;101212.88;;;3.70;82.61
51359;BME280;37448;51.588;7.248;2023-02-01T03:09:19;101218.00;;;3.67;83.75
51359;BME280;37448;51.588;7.248;2023-02-01T03:11:21;101218.00;;;3.67;83.62
51359;BME280;37448;51.588;7.248;2023-02-01T03:13:38;101204.22;;;3.68;83.63
51359;BME280;37448;51.588;7.248;2023-02-01T03:15:54;101191.31;;;3.68;83.22
51359;BME280;37448;51.588;7.248;2023-02-01T03:17:57;101190.47;;;3.69;83.76
51359;BME280;37448;51.588;7.248;2023-02-01T03:20:02;101192.19;;;3.70;83.18
51359;BME280;37448;51.588;7.248;2023-02-01T03:22:06;101185.34;;;3.71;83.25
51359;BME280;37448;51.588;7.248;2023-02-01T03:24:12;101202.53;;;3.70;83.36
51359;BME280;37448;51.588;7.248;2023-02-01T03:26:18;101193.03;;;3.69;82.87
51359;BME280;37448;51.588;7.248;2023-02-01T03:28:22;101184.44;;;3.70;81.53
51359;BME280;37448;51.588;7.248;2023-02-01T03:32:29;101193.03;;;3.69;82.53
51359;BME280;37448;51.588;7.248;2023-02-01T03:34:50;101187.03;;;3.70;81.91
51359;BME280;37448;51.588;7.248;2023-02-01T03:36:58;101180.16;;;3.71;81.26
51359;BME280;37448;51.588;7.248;2023-02-01T03:39:34;101180.13;;;3.68;82.54
51359;BME280;37448;51.588;7.248;2023-02-01T03:41:43;101184.41;;;3.67;83.84
51359;BME280;37448;51.588;7.248;2023-02-01T03:43:54;101185.28;;;3.68;83.46
51359;BME280;37448;51.588;7.248;2023-02-01T03:46:00;101177.50;;;3.66;83.26
51359;BME280;37448;51.588;7.248;2023-02-01T03:48:02;101169.78;;;3.69;81.79
51359;BME280;37448;51.588;7.248;2023-02-01T03:50:09;101176.69;;;3.70;80.84
51359;BME280;37448;51.588;7.248;2023-02-01T03:52:28;101164.63;;;3.68;82.90
51359;BME280;37448;51.588;7.248;2023-02-01T03:54:32;101154.25;;;3.66;82.13
51359;BME280;37448;51.588;7.248;2023-02-01T03:56:36;101150.81;;;3.66;82.79
51359;BME280;37448;51.588;7.248;2023-02-01T03:58:38;101155.09;;;3.64;84.13
51359;BME280;37448;51.588;7.248;2023-02-01T04:00:39;101157.63;;;3.62;83.07
51359;BME280;37448;51.588;7.248;2023-02-01T04:02:39;101153.31;;;3.61;82.17
51359;BME280;37448;51.588;7.248;2023-02-01T04:04:40;101168.78;;;3.59;83.18
51359;BME280;37448;51.588;7.248;2023-02-01T04:06:40;101180.00;;;3.60;83.23
51359;BME280;37448;51.588;7.248;2023-02-01T04:08:41;101180.03;;;3.63;81.96
51359;BME280;37448;51.588;7.248;2023-02-01T04:10:41;101166.28;;;3.64;81.90
51359;BME280;37448;51.588;7.248;2023-02-01T04:12:42;101171.47;;;3.66;82.84
51359;BME280;37448;51.588;7.248;2023-02-01T04:14:43;101168.06;;;3.68;81.83
51359;BME280;37448;51.588;7.248;2023-02-01T04:16:43;101169.78;;;3.68;82.28
51359;BME280;37448;51.588;7.248;2023-02-01T04:18:43;101162.88;;;3.68;83.09
51359;BME280;37448;51.588;7.248;2023-02-01T04:20:44;101165.50;;;3.70;82.38
51359;BME280;37448;51.588;7.248;2023-02-01T04:22:45;101162.94;;;3.71;82.48
51359;BME280;37448;51.588;7.248;2023-02-01T04:24:45;101162.94;;;3.71;81.58
51359;BME280;37448;51.588;7.248;2023-02-01T04:26:45;101156.91;;;3.71;82.64
51359;BME280;37448;51.588;7.248;2023-02-01T04:28:46;101157.72;;;3.68;83.35
51359;BME280;37448;51.588;7.248;2023-02-01T04:30:49;101163.78;;;3.70;82.48
51359;BME280;37448;51.588;7.248;2023-02-01T04:32:49;101167.25;;;3.71;83.05
51359;BME280;37448;51.588;7.248;2023-02-01T04:34:50;101160.34;;;3.70;83.80
51359;BME280;37448;51.588;7.248;2023-02-01T04:36:51;101159.50;;;3.71;83.36
51359;BME280;37448;51.588;7.248;2023-02-01T04:38:52;101162.13;;;3.74;81.68
51359;BME280;37448;51.588;7.248;2023-02-01T04:40:52;101147.50;;;3.75;82.23
51359;BME280;37448;51.588;7.248;2023-02-01T04:42:53;101158.66;;;3.73;82.38
51359;BME280;37448;51.588;7.248;2023-02-01T04:44:54;101159.50;;;3.72;83.71
51359;BME280;37448;51.588;7.248;2023-02-01T04:46:54;101159.50;;;3.72;83.40
51359;BME280;37448;51.588;7.248;2023-02-01T04:48:55;101167.28;;;3.74;83.97
51359;BME280;37448;51.588;7.248;2023-02-01T04:50:55;101156.97;;;3.74;83.89
51359;BME280;37448;51.588;7.248;2023-02-01T04:52:56;101154.38;;;3.74;83.59
51359;BME280;37448;51.588;7.248;2023-02-01T04:54:56;101153.53;;;3.75;82.66
51359;BME280;37448;51.588;7.248;2023-02-01T04:56:57;101157.84;;;3.76;83.16
51359;BME280;37448;51.588;7.248;2023-02-01T04:58:57;101156.09;;;3.75;82.43
51359;BME280;37448;51.588;7.248;2023-02-01T05:00:58;101169.91;;;3.76;83.36
51359;BME280;37448;51.588;7.248;2023-02-01T05:02:58;101170.75;;;3.76;82.77
51359;BME280;37448;51.588;7.248;2023-02-01T05:04:59;101163.06;;;3.78;82.95
51359;BME280;37448;51.588;7.248;2023-02-01T05:06:59;101167.34;;;3.77;82.48
51359;BME280;37448;51.588;7.248;2023-02-01T05:08:59;101169.06;;;3.78;83.41
51359;BME280;37448;51.588;7.248;2023-02-01T05:11:00;101169.06;;;3.78;83.54
51359;BME280;37448;51.588;7.248;2023-02-01T05:13:02;101168.22;;;3.78;83.87
51359;BME280;37448;51.588;7.248;2023-02-01T05:15:21;101169.03;;;3.75;83.73
51359;BME280;37448;51.588;7.248;2023-02-01T05:17:22;101176.75;;;3.73;84.06
51359;BME280;37448;51.588;7.248;2023-02-01T05:19:22;101179.38;;;3.75;82.87
51359;BME280;37448;51.588;7.248;2023-02-01T05:21:23;101173.34;;;3.75;83.50
51359;BME280;37448;51.588;7.248;2023-02-01T05:23:23;101165.59;;;3.76;83.45
51359;BME280;37448;51.588;7.248;2023-02-01T05:25:24;101168.19;;;3.76;83.25
51359;BME280;37448;51.588;7.248;2023-02-01T05:27:24;101176.81;;;3.77;82.95
51359;BME280;37448;51.588;7.248;2023-02-01T05:29:24;101173.34;;;3.75;83.74
51359;BME280;37448;51.588;7.248;2023-02-01T05:31:25;101181.97;;;3.77;83.33
51359;BME280;37448;51.588;7.248;2023-02-01T05:33:25;101163.91;;;3.78;83.16
51359;BME280;37448;51.588;7.248;2023-02-01T05:35:26;101152.72;;;3.79;82.91
51359;BME280;37448;51.588;7.248;2023-02-01T05:37:26;101169.06;;;3.78;83.24
51359;BME280;37448;51.588;7.248;2023-02-01T05:39:26;101181.09;;;3.76;83.44
51359;BME280;37448;51.588;7.248;2023-02-01T05:41:27;101163.06;;;3.78;83.54
51359;BME280;37448;51.588;7.248;2023-02-01T05:43:27;101169.06;;;3.78;82.63
51359;BME280;37448;51.588;7.248;2023-02-01T05:45:27;101157.03;;;3.79;82.71
51359;BME280;37448;51.588;7.248;2023-02-01T05:47:28;101145.81;;;3.77;83.45
51359;BME280;37448;51.588;7.248;2023-02-01T05:49:28;101132.81;;;3.73;84.03
51359;BME280;37448;51.588;7.248;2023-02-01T05:51:29;101149.16;;;3.71;82.98
51359;BME280;37448;51.588;7.248;2023-02-01T05:53:29;101143.97;;;3.69;83.51
51359;BME280;37448;51.588;7.248;2023-02-01T05:55:29;101150.00;;;3.70;83.43
51359;BME280;37448;51.588;7.248;2023-02-01T05:57:30;101154.25;;;3.65;83.57
51359;BME280;37448;51.588;7.248;2023-02-01T05:59:30;101139.50;;;3.59;84.88
51359;BME280;37448;51.588;7.248;2023-02-01T06:01:31;101122.25;;;3.56;84.64
51359;BME280;37448;51.588;7.248;2023-02-01T06:03:31;101130.84;;;3.55;84.20
51359;BME280;37448;51.588;7.248;2023-02-01T06:05:31;101133.47;;;3.57;84.07
51359;BME280;37448;51.588;7.248;2023-02-01T06:07:32;101135.25;;;3.61;83.32
51359;BME280;37448;51.588;7.248;2023-02-01T06:09:33;101143.88;;;3.63;83.61
51359;BME280;37448;51.588;7.248;2023-02-01T06:11:33;101139.59;;;3.64;84.82
51359;BME280;37448;51.588;7.248;2023-02-01T06:13:34;101140.53;;;3.70;83.74
51359;BME280;37448;51.588;7.248;2023-02-01T06:15:34;101137.06;;;3.68;84.47
51359;BME280;37448;51.588;7.248;2023-02-01T06:17:35;101139.69;;;3.71;84.25
51359;BME280;37448;51.588;7.248;2023-02-01T06:19:35;101148.28;;;3.70;83.21
51359;BME280;37448;51.588;7.248;2023-02-01T06:21:36;101150.88;;;3.70;83.74
51359;BME280;37448;51.588;7.248;2023-02-01T06:23:36;101156.91;;;3.72;83.37
51359;BME280;37448;51.588;7.248;2023-02-01T06:25:37;101163.88;;;3.75;82.80
51359;BME280;37448;51.588;7.248;2023-02-01T06:27:37;101164.75;;;3.76;83.03
51359;BME280;37448;51.588;7.248;2023-02-01T06:29:38;101160.44;;;3.75;84.08
51359;BME280;37448;51.588;7.248;2023-02-01T06:31:38;101166.41;;;3.73;83.98
51359;BME280;37448;51.588;7.248;2023-02-01T06:33:40;101178.50;;;3.75;83.84
51359;BME280;37448;51.588;7.248;2023-02-01T06:35:42;101171.56;;;3.73;83.23
51359;BME280;37448;51.588;7.248;2023-02-01T06:37:44;101169.00;;;3.72;84.43
51359;BME280;37448;51.588;7.248;2023-02-01T06:39:44;101169.84;;;3.72;84.77
51359;BME280;37448;51.588;7.248;2023-02-01T06:41:48;101160.44;;;3.75;84.12
51359;BME280;37448;51.588;7.248;2023-02-01T06:43:49;101169.03;;;3.75;83.87
51359;BME280;37448;51.588;7.248;2023-02-01T06:45:50;101161.25;;;3.73;84.21
51359;BME280;37448;51.588;7.248;2023-02-01T06:47:50;101163.00;;;3.76;84.53
51359;BME280;37448;51.588;7.248;2023-02-01T06:49:51;101162.16;;;3.77;84.57
51359;BME280;37448;51.588;7.248;2023-02-01T06:51:51;101160.44;;;3.76;84.60
51359;BME280;37448;51.588;7.248;2023-02-01T06:53:51;101156.16;;;3.77;84.43
51359;BME280;37448;51.588;7.248;2023-02-01T06:55:59;101167.34;;;3.77;83.80
51359;BME280;37448;51.588;7.248;2023-02-01T06:57:59;101159.63;;;3.79;82.69
51359;BME280;37448;51.588;7.248;2023-02-01T07:00:03;101166.53;;;3.80;83.25
51359;BME280;37448;51.588;7.248;2023-02-01T07:02:03;101169.97;;;3.79;83.57
51359;BME280;37448;51.588;7.248;2023-02-01T07:04:04;101187.19;;;3.80;83.68
51359;BME280;37448;51.588;7.248;2023-02-01T07:06:05;101173.47;;;3.84;82.58
51359;BME280;37448;51.588;7.248;2023-02-01T07:08:06;101183.81;;;3.84;83.39
51359;BME280;37448;51.588;7.248;2023-02-01T07:10:06;101182.06;;;3.83;83.88
51359;BME280;37448;51.588;7.248;2023-02-01T07:12:07;101186.34;;;3.81;83.81
51359;BME280;37448;51.588;7.248;2023-02-01T07:14:07;101184.63;;;3.81;83.68
51359;BME280;37448;51.588;7.248;2023-02-01T07:16:13;101179.44;;;3.80;84.13
51359;BME280;37448;51.588;7.248;2023-02-01T07:18:14;101171.69;;;3.80;83.83
51359;BME280;37448;51.588;7.248;2023-02-01T07:20:15;101187.19;;;3.80;84.01
51359;BME280;37448;51.588;7.248;2023-02-01T07:22:17;101182.03;;;3.80;84.49
51359;BME280;37448;51.588;7.248;2023-02-01T07:24:17;101187.19;;;3.80;84.44
51359;BME280;37448;51.588;7.248;2023-02-01T07:26:17;101182.91;;;3.83;83.05
51359;BME280;37448;51.588;7.248;2023-02-01T07:28:18;101195.00;;;3.84;83.70
51359;BME280;37448;51.588;7.248;2023-02-01T07:30:18;101197.63;;;3.86;83.68
51359;BME280;37448;51.588;7.248;2023-02-01T07:32:18;101191.59;;;3.87;84.24
51359;BME280;37448;51.588;7.248;2023-02-01T07:34:19;101200.25;;;3.87;84.44
51359;BME280;37448;51.588;7.248;2023-02-01T07:36:19;101195.91;;;3.88;83.56
51359;BME280;37448;51.588;7.248;2023-02-01T07:38:20;101202.81;;;3.89;84.15
51359;BME280;37448;51.588;7.248;2023-02-01T07:40:21;101201.13;;;3.91;83.14
51359;BME280;37448;51.588;7.248;2023-02-01T07:42:28;101199.44;;;3.93;83.28
51359;BME280;37448;51.588;7.248;2023-02-01T07:44:28;101197.69;;;3.92;83.95
51359;BME280;37448;51.588;7.248;2023-02-01T07:46:29;101210.63;;;3.92;84.75
51359;BME280;37448;51.588;7.248;2023-02-01T07:48:30;101207.19;;;3.93;84.29
51359;BME280;37448;51.588;7.248;2023-02-01T07:50:30;101208.03;;;3.92;84.05
51359;BME280;37448;51.588;7.248;2023-02-01T07:52:31;101216.69;;;3.94;83.86
51359;BME280;37448;51.588;7.248;2023-02-01T07:54:31;101210.66;;;3.95;84.10
51359;BME280;37448;51.588;7.248;2023-02-01T07:56:31;101215.00;;;3.96;83.62
51359;BME280;37448;51.588;7.248;2023-02-01T07:58:32;101201.19;;;3.94;83.89
51359;BME280;37448;51.588;7.248;2023-02-01T08:00:32;101210.66;;;3.95;83.62
51359;BME280;37448;51.588;7.248;2023-02-01T08:02:51;101211.50;;;3.94;84.12
51359;BME280;37448;51.588;7.248;2023-02-01T08:04:51;101215.84;;;3.95;83.42
51359;BME280;37448;51.588;7.248;2023-02-01T08:06:52;101207.22;;;3.95;83.90
51359;BME280;37448;51.588;7.248;2023-02-01T08:08:53;101215.81;;;3.94;84.14
51359;BME280;37448;51.588;7.248;2023-02-01T08:10:57;101208.09;;;3.95;83.19
51359;BME280;37448;51.588;7.248;2023-02-01T08:12:59;101209.81;;;3.96;83.60
51359;BME280;37448;51.588;7.248;2023-02-01T08:15:00;101220.16;;;3.96;84.83
51359;BME280;37448;51.588;7.248;2023-02-01T08:17:00;101233.91;;;3.95;85.21
51359;BME280;37448;51.588;7.248;2023-02-01T08:19:00;101219.31;;;3.96;84.14
51359;BME280;37448;51.588;7.248;2023-02-01T08:21:09;101208.97;;;3.96;83.56
51359;BME280;37448;51.588;7.248;2023-02-01T08:23:10;101223.66;;;3.98;84.46
51359;BME280;37448;51.588;7.248;2023-02-01T08:25:10;101221.91;;;3.97;84.21
51359;BME280;37448;51.588;7.248;2023-02-01T08:27:11;101211.50;;;3.94;84.39
51359;BME280;37448;51.588;7.248;2023-02-01T08:29:12;101216.72;;;3.97;84.93
51359;BME280;37448;51.588;7.248;2023-02-01T08:31:16;101217.56;;;3.96;85.56
51359;BME280;37448;51.588;7.248;2023-02-01T08:33:16;101223.66;;;3.98;84.93
51359;BME280;37448;51.588;7.248;2023-02-01T08:35:16;101218.53;;;4.01;84.59
51359;BME280;37448;51.588;7.248;2023-02-01T08:37:17;101231.50;;;4.05;83.65
51359;BME280;37448;51.588;7.248;2023-02-01T08:39:17;101232.38;;;4.07;83.98
51359;BME280;37448;51.588;7.248;2023-02-01T08:41:20;101237.56;;;4.08;84.13
51359;BME280;37448;51.588;7.248;2023-02-01T08:43:21;101236.75;;;4.11;84.59
51359;BME280;37448;51.588;7.248;2023-02-01T08:45:24;101224.69;;;4.10;84.97
51359;BME280;37448;51.588;7.248;2023-02-01T08:47:25;101238.50;;;4.12;85.00
51359;BME280;37448;51.588;7.248;2023-02-01T08:49:25;101235.91;;;4.12;84.68
51359;BME280;37448;51.588;7.248;2023-02-01T08:51:25;101230.78;;;4.15;84.33
51359;BME280;37448;51.588;7.248;2023-02-01T08:53:26;101234.25;;;4.17;85.13
51359;BME280;37448;51.588;7.248;2023-02-01T08:55:26;101240.34;;;4.21;84.29
51359;BME280;37448;51.588;7.248;2023-02-01T08:57:27;101232.63;;;4.22;83.87
51359;BME280;37448;51.588;7.248;2023-02-01T08:59:28;101242.13;;;4.25;84.44
51359;BME280;37448;51.588;7.248;2023-02-01T09:01:28;101232.66;;;4.27;84.47
51359;BME280;37448;51.588;7.248;2023-02-01T09:03:28;101236.13;;;4.27;84.26
51359;BME280;37448;51.588;7.248;2023-02-01T09:05:29;101239.56;;;4.26;83.57
51359;BME280;37448;51.588;7.248;2023-02-01T09:07:29;101236.09;;;4.26;83.96
51359;BME280;37448;51.588;7.248;2023-02-01T09:09:29;101239.56;;;4.26;84.41
51359;BME280;37448;51.588;7.248;2023-02-01T09:11:30;101229.22;;;4.26;84.10
51359;BME280;37448;51.588;7.248;2023-02-01T09:13:30;101223.22;;;4.29;84.29
51359;BME280;37448;51.588;7.248;2023-02-01T09:15:31;101225.84;;;4.30;84.35
51359;BME280;37448;51.588;7.248;2023-02-01T09:17:31;101231.94;;;4.34;84.08
51359;BME280;37448;51.588;7.248;2023-02-01T09:19:32;101205.19;;;4.34;83.78
51359;BME280;37448;51.588;7.248;2023-02-01T09:21:32;101203.47;;;4.36;83.76
51359;BME280;37448;51.588;7.248;2023-02-01T09:23:34;101194.03;;;4.38;83.42
51359;BME280;37448;51.588;7.248;2023-02-01T09:25:37;101194.91;;;4.38;83.18
51359;BME280;37448;51.588;7.248;2023-02-01T09:27:38;101209.63;;;4.42;83.78
51359;BME280;37448;51.588;7.248;2023-02-01T09:29:38;101202.69;;;4.43;84.00
51359;BME280;37448;51.588;7.248;2023-02-01T09:31:39;101200.13;;;4.41;82.53
51359;BME280;37448;51.588;7.248;2023-02-01T09:33:39;101208.75;;;4.45;84.02
51359;BME280;37448;51.588;7.248;2023-02-01T09:35:40;101195.81;;;4.45;82.98
51359;BME280;37448;51.588;7.248;2023-02-01T09:37:40;101209.72;;;4.52;84.06
51359;BME280;37448;51.588;7.248;2023-02-01T09:39:41;101208.91;;;4.54;82.25
51359;BME280;37448;51.588;7.248;2023-02-01T09:41:51;101215.84;;;4.58;83.06
51359;BME280;37448;51.588;7.248;2023-02-01T09:46:28;101218.47;;;4.62;83.00
51359;BME280;37448;51.588;7.248;2023-02-01T09:48:36;101212.44;;;4.63;82.58
51359;BME280;37448;51.588;7.248;2023-02-01T09:50:41;101201.25;;;4.64;82.48
51359;BME280;37448;51.588;7.248;2023-02-01T09:55:22;101214.19;;;4.64;82.45
51359;BME280;37448;51.588;7.248;2023-02-01T09:57:42;101210.72;;;4.62;81.96
51359;BME280;37448;51.588;7.248;2023-02-01T09:59:46;101188.31;;;4.64;82.37
51359;BME280;37448;51.588;7.248;2023-02-01T10:01:49;101195.22;;;4.65;81.86
51359;BME280;37448;51.588;7.248;2023-02-01T10:03:52;101193.50;;;4.67;81.06
51359;BME280;37448;51.588;7.248;2023-02-01T10:06:19;101201.28;;;4.67;81.30
51359;BME280;37448;51.588;7.248;2023-02-01T10:10:49;101192.72;;;4.71;82.44
51359;BME280;37448;51.588;7.248;2023-02-01T10:17:12;101197.09;;;4.78;80.57
51359;BME280;37448;51.588;7.248;2023-02-01T10:21:52;101181.59;;;4.81;81.07
51359;BME280;37448;51.588;7.248;2023-02-01T10:26:23;101214.41;;;4.82;80.87
51359;BME280;37448;51.588;7.248;2023-02-01T10:28:24;101204.06;;;4.82;81.20
51359;BME280;37448;51.588;7.248;2023-02-01T10:30:30;101209.25;;;4.84;81.57
51359;BME280;37448;51.588;7.248;2023-02-01T10:32:34;101198.88;;;4.82;80.14
51359;BME280;37448;51.588;7.248;2023-02-01T10:34:36;101204.94;;;4.83;80.78
51359;BME280;37448;51.588;7.248;2023-02-01T10:36:41;101195.41;;;4.80;80.14
51359;BME280;37448;51.588;7.248;2023-02-01T10:38:42;101193.66;;;4.79;80.40
51359;BME280;37448;51.588;7.248;2023-02-01T10:40:43;101192.78;;;4.79;80.05
51359;BME280;37448;51.588;7.248;2023-02-01T10:42:44;101196.22;;;4.78;80.48
51359;BME280;37448;51.588;7.248;2023-02-01T10:44:44;101188.50;;;4.79;80.75
51359;BME280;37448;51.588;7.248;2023-02-01T10:46:47;101193.66;;;4.79;80.87
51359;BME280;37448;51.588;7.248;2023-02-01T10:48:48;101196.25;;;4.79;80.68
51359;BME280;37448;51.588;7.248;2023-02-01T10:51:02;101186.75;;;4.80;79.65
51359;BME280;37448;51.588;7.248;2023-02-01T10:53:15;101186.78;;;4.81;79.37
51359;BME280;37448;51.588;7.248;2023-02-01T10:55:50;101202.34;;;4.84;80.54
51359;BME280;37448;51.588;7.248;2023-02-01T10:58:00;101182.53;;;4.86;80.37
51359;BME280;37448;51.588;7.248;2023-02-01T11:00:12;101186.00;;;4.87;81.21
51359;BME280;37448;51.588;7.248;2023-02-01T11:02:31;101175.66;;;4.87;80.10
51359;BME280;37448;51.588;7.248;2023-02-01T11:04:34;101193.75;;;4.88;79.99
51359;BME280;37448;51.588;7.248;2023-02-01T11:06:40;101174.78;;;4.89;80.41
51359;BME280;37448;51.588;7.248;2023-02-01T11:08:46;101174.78;;;4.89;80.46
51359;BME280;37448;51.588;7.248;2023-02-01T11:10:57;101184.28;;;4.89;80.23
51359;BME280;37448;51.588;7.248;2023-02-01T11:13:02;101187.72;;;4.88;80.31
51359;BME280;37448;51.588;7.248;2023-02-01T11:15:23;101178.25;;;4.90;80.25
51359;BME280;37448;51.588;7.248;2023-02-01T11:17:34;101167.91;;;4.92;81.46
51359;BME280;37448;51.588;7.248;2023-02-01T11:19:35;101168.78;;;4.92;81.14
51359;BME280;37448;51.588;7.248;2023-02-01T11:21:35;101163.59;;;4.92;80.93
51359;BME280;37448;51.588;7.248;2023-02-01T11:23:41;101164.53;;;4.96;80.17
51359;BME280;37448;51.588;7.248;2023-02-01T11:25:52;101158.50;;;4.98;80.39
51359;BME280;37448;51.588;7.248;2023-02-01T11:27:54;101147.31;;;5.01;81.24
51359;BME280;37448;51.588;7.248;2023-02-01T11:30:01;101130.09;;;5.06;80.72
51359;BME280;37448;51.588;7.248;2023-02-01T11:32:03;101127.53;;;5.12;80.96
51359;BME280;37448;51.588;7.248;2023-02-01T11:34:08;101126.75;;;5.18;80.17
51359;BME280;37448;51.588;7.248;2023-02-01T11:36:16;101123.34;;;5.24;79.64